Time;durP1;ratioP1;P1;durP2;ratioP2;P2;SDS_P1;SDS_P2;PMS_P1;PMS_P2;Temp;Humidity;BMP_temperature;BMP_pressure;BME280_temperature;BME280_humidity;BME280_pressure;Samples;Min_cycle;Max_cycle;Signal;HPM_P1;HPM_P2
2023/05/11 00:01:25;;;;;;;13.30;13.00;;;14.10;94.50;;;;;;4996814;28;20518;-83
2023/05/11 00:04:26;;;;;;;13.63;13.03;;;14.10;73.90;;;;;;5016525;28;21316;-84
2023/05/11 00:07:04;;;;;;;12.83;12.43;;;14.10;28.90;;;;;;5017185;28;20469;-84
2023/05/11 00:10:02;;;;;;;12.77;12.40;;;14.00;22.80;;;;;;5022068;28;20883;-85
2023/05/11 00:12:33;;;;;;;12.60;12.30;;;14.10;56.50;;;;;;5019576;28;20941;-82
2023/05/11 00:15:10;;;;;;;12.50;12.20;;;14.10;21.40;;;;;;5013719;28;21096;-82
2023/05/11 00:17:41;;;;;;;12.50;12.00;;;14.10;77.10;;;;;;5014495;28;20467;-84
2023/05/11 00:20:10;;;;;;;11.93;11.73;;;14.10;27.50;;;;;;5016463;28;20856;-84
2023/05/11 00:22:38;;;;;;;12.17;11.97;;;14.10;10.50;;;;;;5015196;28;20491;-83
2023/05/11 00:25:09;;;;;;;12.53;12.30;;;14.20;1.40;;;;;;5018720;28;20683;-84
2023/05/11 00:27:38;;;;;;;11.87;11.47;;;14.10;1.00;;;;;;5017591;28;20461;-83
2023/05/11 00:30:09;;;;;;;12.40;12.20;;;14.10;1.00;;;;;;5016187;28;20564;-83
2023/05/11 00:32:37;;;;;;;12.40;12.20;;;14.10;22.00;;;;;;5014655;28;20451;-83
2023/05/11 00:35:06;;;;;;;12.00;11.80;;;14.10;1.00;;;;;;4996631;28;20485;-85
2023/05/11 00:37:34;;;;;;;12.20;12.00;;;14.10;14.40;;;;;;5015587;28;20469;-84
2023/05/11 00:40:03;;;;;;;11.80;11.53;;;14.10;7.00;;;;;;5015661;28;20460;-83
2023/05/11 00:42:33;;;;;;;12.40;12.10;;;14.20;20.40;;;;;;5016052;28;20461;-83
2023/05/11 00:45:01;;;;;;;11.67;11.37;;;14.20;1.00;;;;;;5011037;28;20513;-82
2023/05/11 00:47:30;;;;;;;11.30;11.10;;;14.20;7.60;;;;;;5015294;28;20467;-84
2023/05/11 00:49:59;;;;;;;11.57;11.37;;;14.10;1.00;;;;;;5017262;28;20455;-84
2023/05/11 00:52:27;;;;;;;12.20;11.80;;;14.10;14.50;;;;;;5015411;28;20990;-84
2023/05/11 00:54:55;;;;;;;11.90;11.60;;;13.90;45.10;;;;;;5018245;28;20617;-83
2023/05/11 00:57:23;;;;;;;12.50;12.00;;;14.00;99.90;;;;;;5020385;28;20452;-83
2023/05/11 00:59:53;;;;;;;11.77;11.47;;;14.00;99.90;;;;;;5021861;28;20460;-83
2023/05/11 01:02:21;;;;;;;12.63;12.33;;;14.00;98.20;;;;;;5017494;28;20456;-84
2023/05/11 01:04:51;;;;;;;12.30;12.10;;;14.00;99.90;;;;;;5022403;28;22369;-83
2023/05/11 01:07:25;;;;;;;11.90;11.70;;;14.10;70.70;;;;;;5021206;28;20467;-83
2023/05/11 01:10:02;;;;;;;12.10;11.90;;;14.00;56.40;;;;;;5026909;28;20982;-83
2023/05/11 01:12:47;;;;;;;12.30;12.00;;;14.00;99.90;;;;;;5026161;28;20535;-83
2023/05/11 01:15:25;;;;;;;12.73;12.53;;;14.00;99.90;;;;;;5025384;28;20476;-82
2023/05/11 01:18:00;;;;;;;12.40;12.20;;;13.90;99.90;;;;;;5029543;28;20452;-85
2023/05/11 01:20:38;;;;;;;12.00;11.80;;;14.00;99.90;;;;;;5025811;28;20462;-82
2023/05/11 01:23:55;;;;;;;12.30;12.00;;;14.10;99.90;;;;;;5025098;28;20489;-83
2023/05/11 01:27:03;;;;;;;12.70;12.40;;;13.90;99.90;;;;;;5004507;28;20462;-82
2023/05/11 01:30:14;;;;;;;12.27;12.07;;;13.90;99.90;;;;;;5026398;28;20443;-81
2023/05/11 01:32:49;;;;;;;12.60;12.30;;;13.80;99.90;;;;;;5020728;28;20961;-83
2023/05/11 01:35:24;;;;;;;12.73;12.37;;;13.90;99.90;;;;;;5023219;28;20911;-84
2023/05/11 01:37:57;;;;;;;12.50;12.20;;;13.90;99.90;;;;;;5007749;28;20993;-83
2023/05/11 01:40:38;;;;;;;12.30;11.90;;;13.90;99.90;;;;;;5025516;28;20469;-83
2023/05/11 01:43:12;;;;;;;12.60;12.30;;;13.90;99.90;;;;;;5017522;28;20932;-83
2023/05/11 01:45:45;;;;;;;12.13;11.93;;;13.90;99.90;;;;;;5026245;28;20456;-83
2023/05/11 01:48:24;;;;;;;12.80;12.40;;;13.90;99.90;;;;;;5019385;28;21159;-83
2023/05/11 01:50:54;;;;;;;12.60;12.27;;;13.80;99.90;;;;;;5021874;28;20610;-84
2023/05/11 01:53:24;;;;;;;12.90;12.63;;;13.80;99.90;;;;;;5021277;28;20478;-81
2023/05/11 01:55:55;;;;;;;12.87;12.57;;;13.90;99.90;;;;;;5004203;28;20483;-83
2023/05/11 01:58:24;;;;;;;13.03;12.53;;;13.90;99.90;;;;;;5005891;28;20452;-83
2023/05/11 02:00:54;;;;;;;13.70;12.70;;;13.90;99.90;;;;;;5028183;28;20462;-84
2023/05/11 02:03:26;;;;;;;12.37;12.07;;;13.90;99.90;;;;;;5026572;28;20476;-83
2023/05/11 02:05:55;;;;;;;13.00;12.70;;;13.90;99.90;;;;;;5022459;28;20517;-83
2023/05/11 02:08:25;;;;;;;12.73;12.43;;;13.80;99.90;;;;;;5022161;28;20461;-81
2023/05/11 02:10:56;;;;;;;12.33;12.03;;;13.80;99.90;;;;;;5025918;28;20508;-82
2023/05/11 02:13:26;;;;;;;12.57;12.37;;;13.80;99.90;;;;;;5024045;28;20503;-83
2023/05/11 02:15:57;;;;;;;12.33;12.10;;;13.90;99.90;;;;;;5022925;28;20489;-83
2023/05/11 02:18:28;;;;;;;12.67;12.37;;;13.80;99.90;;;;;;5022907;28;20524;-83
2023/05/11 02:20:59;;;;;;;12.90;12.60;;;13.80;99.90;;;;;;5021502;28;20547;-83
2023/05/11 02:23:28;;;;;;;12.70;12.40;;;13.90;99.90;;;;;;5019114;28;20495;-83
2023/05/11 02:25:57;;;;;;;12.77;12.47;;;13.80;99.90;;;;;;5021446;28;20460;-84
2023/05/11 02:28:25;;;;;;;12.50;12.30;;;13.70;99.90;;;;;;5017802;28;20466;-81
2023/05/11 02:30:56;;;;;;;13.00;12.70;;;13.80;99.90;;;;;;5021383;28;20464;-83
2023/05/11 02:33:30;;;;;;;12.53;12.30;;;13.70;99.90;;;;;;5017453;28;20527;-82
2023/05/11 02:36:00;;;;;;;12.30;12.10;;;13.60;1.00;;;;;;5021439;28;20480;-81
2023/05/11 02:38:33;;;;;;;12.50;12.20;;;13.70;1.00;;;;;;5022534;28;20460;-81
2023/05/11 02:41:05;;;;;;;12.00;11.80;;;13.70;1.00;;;;;;5025358;28;20466;-83
2023/05/11 02:43:39;;;;;;;12.40;12.10;;;13.70;1.00;;;;;;5023197;28;20483;-82
2023/05/11 02:46:15;;;;;;;12.60;12.30;;;13.70;1.00;;;;;;5015279;28;20451;-82
2023/05/11 02:48:49;;;;;;;12.20;12.00;;;13.70;1.00;;;;;;5017406;28;20459;-83
2023/05/11 02:51:20;;;;;;;12.77;12.43;;;13.60;1.00;;;;;;5020399;28;20564;-83
2023/05/11 02:53:50;;;;;;;13.03;12.57;;;13.50;1.00;;;;;;5018804;28;20513;-82
2023/05/11 02:56:18;;;;;;;12.60;12.30;;;13.70;1.00;;;;;;5004251;28;20481;-82
2023/05/11 02:58:47;;;;;;;12.13;11.83;;;13.70;1.00;;;;;;5018613;28;20460;-83
2023/05/11 03:01:15;;;;;;;12.33;12.00;;;13.60;1.00;;;;;;5022339;28;20473;-82
2023/05/11 03:03:45;;;;;;;12.80;12.40;;;13.50;1.00;;;;;;5022691;28;20480;-83
2023/05/11 03:06:14;;;;;;;12.50;12.20;;;13.60;1.00;;;;;;5020818;28;20461;-83
2023/05/11 03:08:42;;;;;;;12.50;12.10;;;13.50;1.00;;;;;;5021281;28;20450;-83
2023/05/11 03:11:11;;;;;;;12.40;12.20;;;13.60;1.00;;;;;;5019604;28;20447;-82
2023/05/11 03:13:39;;;;;;;12.87;12.57;;;13.50;25.60;;;;;;5019994;28;20478;-81
2023/05/11 03:16:09;;;;;;;13.10;12.70;;;13.60;1.00;;;;;;5020527;28;21091;-81
2023/05/11 03:18:38;;;;;;;13.47;13.00;;;13.60;9.30;;;;;;5019496;28;20461;-80
2023/05/11 03:21:07;;;;;;;12.93;12.63;;;13.60;1.00;;;;;;5016360;28;20551;-82
2023/05/11 03:23:37;;;;;;;13.13;12.93;;;13.50;95.30;;;;;;5017572;28;20472;-83
2023/05/11 03:26:07;;;;;;;13.23;12.93;;;13.50;99.90;;;;;;5018395;28;20459;-83
2023/05/11 03:28:36;;;;;;;13.43;13.00;;;13.50;99.90;;;;;;5019255;28;20460;-81
2023/05/11 03:31:05;;;;;;;13.40;13.10;;;13.50;54.40;;;;;;5017291;28;20460;-82
2023/05/11 03:33:33;;;;;;;13.20;12.90;;;13.60;1.00;;;;;;4996694;28;20502;-81
2023/05/11 03:36:04;;;;;;;13.37;12.90;;;13.50;28.70;;;;;;5015780;28;20486;-83
2023/05/11 03:38:35;;;;;;;13.80;13.50;;;13.50;99.90;;;;;;5017878;28;20455;-83
2023/05/11 03:41:03;;;;;;;13.43;13.03;;;13.40;99.90;;;;;;5022588;28;20989;-82
2023/05/11 03:43:34;;;;;;;13.50;12.93;;;13.50;47.00;;;;;;5015752;28;20661;-81
2023/05/11 03:46:03;;;;;;;13.33;13.03;;;13.40;41.50;;;;;;5023085;28;21145;-82
2023/05/11 03:48:32;;;;;;;13.83;13.30;;;13.60;16.80;;;;;;5020046;28;20479;-82
2023/05/11 03:51:00;;;;;;;13.30;13.00;;;13.50;5.00;;;;;;5015885;28;20594;-83
2023/05/11 03:53:30;;;;;;;13.70;13.40;;;13.40;99.90;;;;;;5001574;28;20468;-81
2023/05/11 03:56:00;;;;;;;13.90;13.60;;;13.40;99.90;;;;;;5022430;28;20480;-82
2023/05/11 03:58:29;;;;;;;14.40;14.00;;;13.40;99.90;;;;;;5021557;28;20462;-83
2023/05/11 04:00:58;;;;;;;14.90;14.50;;;13.40;99.90;;;;;;5012876;28;20472;-84
2023/05/11 04:03:26;;;;;;;14.90;14.40;;;13.40;99.90;;;;;;5017382;28;20490;-80
2023/05/11 04:05:55;;;;;;;14.60;14.20;;;13.50;99.90;;;;;;5016258;28;20982;-82
2023/05/11 04:08:24;;;;;;;14.00;13.60;;;13.50;99.90;;;;;;5022043;28;20527;-83
2023/05/11 04:10:52;;;;;;;14.43;13.90;;;13.50;99.90;;;;;;5019492;28;20460;-83
2023/05/11 04:13:21;;;;;;;13.13;12.83;;;13.50;54.20;;;;;;5023372;28;20465;-83
2023/05/11 04:15:49;;;;;;;13.90;13.53;;;13.50;1.00;;;;;;5021858;28;20494;-82
2023/05/11 04:18:21;;;;;;;14.00;13.60;;;13.40;1.00;;;;;;5021368;28;20478;-83
2023/05/11 04:20:49;;;;;;;13.03;12.80;;;13.60;1.00;;;;;;5021707;28;20585;-84
2023/05/11 04:23:17;;;;;;;13.13;12.83;;;13.60;1.00;;;;;;5012956;28;20486;-83
2023/05/11 04:25:46;;;;;;;13.80;13.20;;;13.50;1.00;;;;;;5015359;28;20573;-81
2023/05/11 04:28:14;;;;;;;13.87;13.47;;;13.50;5.90;;;;;;5013746;28;20509;-78
2023/05/11 04:30:43;;;;;;;13.47;13.17;;;13.40;96.40;;;;;;5012791;28;20815;-79
2023/05/11 04:33:13;;;;;;;14.00;13.60;;;13.50;25.80;;;;;;5011517;28;20467;-77
2023/05/11 04:35:41;;;;;;;14.10;13.70;;;13.50;20.40;;;;;;5014621;28;20459;-85
2023/05/11 04:38:09;;;;;;;14.13;13.83;;;13.50;30.70;;;;;;5015790;28;20523;-85
2023/05/11 04:40:37;;;;;;;13.97;13.67;;;13.50;25.30;;;;;;5017720;28;20463;-84
2023/05/11 04:43:06;;;;;;;13.97;13.67;;;13.40;59.00;;;;;;5016006;28;20515;-84
2023/05/11 04:45:34;;;;;;;13.70;13.40;;;13.40;27.10;;;;;;5010943;28;20470;-84
2023/05/11 04:48:05;;;;;;;14.03;13.63;;;13.40;1.00;;;;;;5015509;28;20479;-85
2023/05/11 04:50:33;;;;;;;14.17;13.47;;;13.50;1.00;;;;;;5014090;28;20949;-85
2023/05/11 04:53:02;;;;;;;13.50;13.20;;;13.50;1.00;;;;;;5014867;28;20484;-86
2023/05/11 04:55:30;;;;;;;13.30;13.00;;;13.50;1.00;;;;;;5009583;28;20468;-87
2023/05/11 04:57:58;;;;;;;13.43;13.13;;;13.50;14.10;;;;;;5014989;28;20521;-85
2023/05/11 05:00:26;;;;;;;13.60;13.30;;;13.50;1.00;;;;;;5012498;28;20453;-87
2023/05/11 05:02:55;;;;;;;13.77;13.37;;;13.60;7.70;;;;;;4998112;28;20494;-87
2023/05/11 05:05:24;;;;;;;13.73;13.40;;;13.50;1.00;;;;;;5001587;28;20544;-86
2023/05/11 05:07:53;;;;;;;13.23;12.93;;;13.60;1.00;;;;;;5015669;28;20964;-85
2023/05/11 05:10:21;;;;;;;13.77;13.47;;;13.60;1.00;;;;;;5017236;28;20523;-85
2023/05/11 05:12:49;;;;;;;14.70;14.30;;;13.60;1.00;;;;;;5016943;28;21105;-83
2023/05/11 05:15:17;;;;;;;15.07;14.67;;;13.50;5.50;;;;;;5013926;28;21152;-86
2023/05/11 05:17:46;;;;;;;14.77;14.40;;;13.60;1.00;;;;;;5016818;28;20483;-84
2023/05/11 05:20:14;;;;;;;15.77;15.00;;;13.60;99.90;;;;;;5012815;28;20942;-85
2023/05/11 05:22:44;;;;;;;15.20;14.80;;;13.60;3.40;;;;;;5018682;28;20462;-84
2023/05/11 05:25:12;;;;;;;14.90;14.60;;;13.60;48.30;;;;;;5015891;28;20471;-84
2023/05/11 05:27:40;;;;;;;15.50;15.00;;;13.60;15.60;;;;;;5001453;28;20727;-84
2023/05/11 05:30:09;;;;;;;15.30;14.90;;;13.70;1.00;;;;;;5020923;28;20463;-85
2023/05/11 05:32:37;;;;;;;15.00;14.57;;;13.60;71.60;;;;;;5014380;28;20455;-84
2023/05/11 05:35:06;;;;;;;15.30;14.80;;;13.60;99.90;;;;;;5012221;28;20482;-85
2023/05/11 05:37:36;;;;;;;15.03;14.53;;;13.60;99.90;;;;;;5000564;28;20490;-85
2023/05/11 05:40:07;;;;;;;15.20;14.80;;;13.60;99.90;;;;;;5019804;28;20497;-84
2023/05/11 05:42:35;;;;;;;15.30;14.80;;;13.60;99.90;;;;;;5021341;28;20458;-84
2023/05/11 05:45:04;;;;;;;15.70;15.30;;;13.60;99.90;;;;;;5023448;28;20964;-85
2023/05/11 05:47:32;;;;;;;16.70;16.10;;;13.60;99.90;;;;;;5021586;28;20475;-85
2023/05/11 05:50:00;;;;;;;15.63;15.10;;;13.60;99.90;;;;;;5022491;28;20463;-84
2023/05/11 05:52:29;;;;;;;15.20;14.80;;;13.80;99.90;;;;;;5022349;28;21041;-85
2023/05/11 05:54:57;;;;;;;15.63;15.13;;;13.80;58.80;;;;;;5022769;28;20462;-85
2023/05/11 05:57:29;;;;;;;15.70;15.13;;;13.80;13.60;;;;;;5021546;28;20468;-84
2023/05/11 05:59:57;;;;;;;16.10;15.60;;;13.80;1.00;;;;;;5022764;28;20979;-80
2023/05/11 06:02:25;;;;;;;15.50;14.93;;;13.80;99.90;;;;;;5022666;28;20553;-80
2023/05/11 06:04:54;;;;;;;15.57;14.97;;;13.80;99.90;;;;;;5027434;28;20450;-83
2023/05/11 06:07:22;;;;;;;15.10;14.70;;;13.80;99.90;;;;;;5023336;28;20549;-81
2023/05/11 06:09:50;;;;;;;16.30;15.67;;;13.90;99.90;;;;;;5023281;28;20448;-86
2023/05/11 06:12:19;;;;;;;16.20;15.50;;;13.80;99.90;;;;;;5024281;28;20444;-84
2023/05/11 06:14:48;;;;;;;15.80;15.40;;;13.80;99.90;;;;;;5005568;28;20472;-84
2023/05/11 06:17:17;;;;;;;16.13;15.57;;;13.80;23.10;;;;;;5009896;28;20468;-83
2023/05/11 06:19:46;;;;;;;16.10;15.60;;;13.80;1.00;;;;;;5019798;28;20458;-81
2023/05/11 06:22:14;;;;;;;15.77;15.30;;;13.80;30.60;;;;;;5020183;28;20460;-84
2023/05/11 06:24:42;;;;;;;16.90;16.20;;;13.90;68.30;;;;;;5019802;28;20475;-84
2023/05/11 06:27:10;;;;;;;15.73;15.33;;;13.90;4.40;;;;;;5020706;28;20474;-84
2023/05/11 06:29:41;;;;;;;16.07;15.40;;;14.00;11.70;;;;;;5017351;28;20489;-84
2023/05/11 06:32:10;;;;;;;15.07;14.67;;;13.90;1.00;;;;;;5012712;28;20462;-85
2023/05/11 06:34:39;;;;;;;15.57;15.17;;;13.90;1.00;;;;;;5019635;28;20474;-84
2023/05/11 06:37:07;;;;;;;15.63;15.20;;;13.90;1.00;;;;;;5020013;28;21008;-86
2023/05/11 06:39:36;;;;;;;15.30;14.80;;;14.00;1.00;;;;;;5017480;28;20483;-84
2023/05/11 06:42:04;;;;;;;17.60;16.87;;;13.90;1.00;;;;;;5021653;28;20456;-84
2023/05/11 06:44:34;;;;;;;15.57;15.13;;;14.00;1.00;;;;;;5018853;28;20857;-85
2023/05/11 06:47:02;;;;;;;15.50;15.10;;;14.00;99.90;;;;;;5022166;28;20456;-86
2023/05/11 06:49:32;;;;;;;15.20;14.80;;;14.00;1.00;;;;;;5020597;28;20553;-86
2023/05/11 06:52:00;;;;;;;16.07;15.27;;;13.90;99.90;;;;;;5015269;28;21045;-84
2023/05/11 06:54:28;;;;;;;14.83;14.53;;;13.90;99.90;;;;;;5016168;28;20613;-85
2023/05/11 06:56:57;;;;;;;15.40;14.93;;;14.00;99.90;;;;;;5020532;28;20460;-84
2023/05/11 06:59:25;;;;;;;15.20;14.80;;;14.00;99.90;;;;;;5020014;28;20482;-85
2023/05/11 07:01:55;;;;;;;15.13;14.73;;;14.00;99.90;;;;;;5020395;28;20462;-84
2023/05/11 07:04:24;;;;;;;15.87;15.20;;;14.00;99.90;;;;;;5018854;28;20547;-85
2023/05/11 07:06:54;;;;;;;16.10;15.37;;;14.00;99.90;;;;;;5012424;28;20470;-84
2023/05/11 07:09:22;;;;;;;15.47;14.97;;;14.10;99.90;;;;;;5017031;28;20985;-84
2023/05/11 07:11:51;;;;;;;15.63;15.23;;;14.10;99.90;;;;;;5023504;28;20533;-84
2023/05/11 07:14:20;;;;;;;15.07;14.77;;;14.10;99.90;;;;;;5018538;28;20468;-86
2023/05/11 07:16:51;;;;;;;15.30;14.90;;;14.00;99.90;;;;;;5020158;28;20669;-85
2023/05/11 07:19:20;;;;;;;23.20;16.60;;;14.10;99.90;;;;;;5020193;28;20566;-85
2023/05/11 07:21:48;;;;;;;16.63;15.37;;;14.00;99.90;;;;;;5002570;28;20459;-84
2023/05/11 07:24:17;;;;;;;14.90;14.50;;;14.10;99.90;;;;;;5015729;28;20484;-84
2023/05/11 07:26:46;;;;;;;15.30;14.80;;;14.00;99.90;;;;;;5000323;28;20455;-85
2023/05/11 07:29:14;;;;;;;14.70;14.30;;;14.00;99.90;;;;;;5019977;28;20892;-85
2023/05/11 07:31:42;;;;;;;15.30;14.90;;;14.10;99.90;;;;;;5017856;28;20459;-84
2023/05/11 07:34:11;;;;;;;15.40;15.00;;;14.10;99.90;;;;;;5018887;28;20485;-84
2023/05/11 07:36:41;;;;;;;15.60;15.20;;;14.10;99.90;;;;;;5017793;28;20449;-85
2023/05/11 07:39:59;;;;;;;15.50;15.10;;;14.10;99.90;;;;;;5017464;28;20476;-85
2023/05/11 07:46:11;;;;;;;15.33;14.83;;;14.10;99.90;;;;;;4902804;28;20456;-86
2023/05/11 07:48:42;;;;;;;15.27;14.93;;;14.10;99.90;;;;;;4939868;28;20463;-85
2023/05/11 07:51:11;;;;;;;14.87;14.53;;;14.10;99.90;;;;;;5001723;28;20994;-84
2023/05/11 07:53:39;;;;;;;15.07;14.67;;;14.10;1.00;;;;;;5020443;28;20507;-84
2023/05/11 07:56:09;;;;;;;17.03;16.43;;;14.10;1.00;;;;;;5018944;28;20450;-85
2023/05/11 07:58:37;;;;;;;16.10;15.60;;;14.10;1.00;;;;;;5000664;28;20473;-84
2023/05/11 08:01:06;;;;;;;15.50;15.00;;;14.10;1.00;;;;;;5018889;28;20458;-83
2023/05/11 08:03:36;;;;;;;15.50;15.10;;;14.10;1.00;;;;;;5020351;28;20464;-84
2023/05/11 08:06:05;;;;;;;15.90;15.47;;;14.10;1.00;;;;;;5020991;28;20470;-85
2023/05/11 08:08:33;;;;;;;15.73;15.33;;;14.10;1.00;;;;;;5017939;28;20449;-84
2023/05/11 08:11:02;;;;;;;15.93;15.43;;;14.00;1.00;;;;;;5007081;28;20457;-85
2023/05/11 08:13:30;;;;;;;16.30;15.90;;;14.00;99.90;;;;;;5015248;28;20527;-86
2023/05/11 08:15:59;;;;;;;16.13;15.63;;;14.00;99.90;;;;;;5019605;28;20452;-85
2023/05/11 08:18:27;;;;;;;16.17;15.67;;;14.00;1.00;;;;;;5008465;28;20480;-83
2023/05/11 08:20:57;;;;;;;16.43;16.03;;;14.00;99.90;;;;;;5018570;28;20467;-85
2023/05/11 08:23:25;;;;;;;16.57;16.07;;;14.00;99.90;;;;;;5020583;28;20480;-84
2023/05/11 08:25:55;;;;;;;17.00;16.40;;;14.10;99.90;;;;;;5022896;28;20952;-84
2023/05/11 08:28:23;;;;;;;16.30;15.80;;;14.10;99.90;;;;;;5019288;28;20457;-84
2023/05/11 08:30:55;;;;;;;16.30;15.90;;;14.10;99.90;;;;;;5017529;28;20577;-85
2023/05/11 08:33:23;;;;;;;18.10;17.30;;;14.10;99.90;;;;;;5016157;28;20472;-85
2023/05/11 08:35:56;;;;;;;17.43;16.93;;;14.10;99.90;;;;;;5018565;28;20483;-85
2023/05/11 08:38:24;;;;;;;17.60;16.90;;;14.20;1.00;;;;;;5018769;28;20523;-85
2023/05/11 08:40:53;;;;;;;17.70;17.00;;;14.20;71.30;;;;;;5020449;28;20500;-84
2023/05/11 08:43:24;;;;;;;17.23;16.50;;;14.20;1.00;;;;;;5016265;28;20990;-84
2023/05/11 08:45:57;;;;;;;16.70;16.20;;;14.20;1.00;;;;;;5014966;28;20478;-83
2023/05/11 08:48:26;;;;;;;17.03;16.53;;;14.20;34.10;;;;;;5019289;28;20452;-85
2023/05/11 08:50:55;;;;;;;16.90;16.40;;;14.20;99.90;;;;;;5000703;28;20785;-84
2023/05/11 08:53:24;;;;;;;16.73;16.20;;;14.10;79.80;;;;;;5014856;28;20485;-84
2023/05/11 08:55:54;;;;;;;17.47;16.73;;;14.20;1.00;;;;;;5000900;28;20969;-84
2023/05/11 08:58:23;;;;;;;16.80;16.30;;;14.20;1.00;;;;;;5021127;28;20856;-85
2023/05/11 09:00:51;;;;;;;17.63;17.07;;;14.30;99.90;;;;;;4999795;28;20463;-84
2023/05/11 09:03:21;;;;;;;16.80;16.40;;;14.40;97.00;;;;;;5015891;28;20557;-84
2023/05/11 09:05:50;;;;;;;16.90;16.40;;;14.40;74.80;;;;;;5017553;28;20456;-84
2023/05/11 09:08:22;;;;;;;16.53;16.03;;;14.40;99.90;;;;;;5015530;28;20459;-85
2023/05/11 09:10:50;;;;;;;17.37;16.87;;;14.40;99.10;;;;;;5001125;28;20456;-85
2023/05/11 09:13:19;;;;;;;16.83;16.20;;;14.40;40.10;;;;;;5016985;28;21006;-84
2023/05/11 09:15:47;;;;;;;16.60;16.10;;;14.40;99.90;;;;;;5021829;28;20825;-82
2023/05/11 09:18:15;;;;;;;16.63;16.13;;;14.50;99.90;;;;;;5023455;28;20449;-83
2023/05/11 09:20:44;;;;;;;16.57;16.17;;;14.60;99.90;;;;;;5022844;28;20483;-83
2023/05/11 09:23:16;;;;;;;16.80;16.40;;;14.60;72.30;;;;;;5003768;28;20477;-84
2023/05/11 09:25:45;;;;;;;17.00;16.50;;;14.60;1.00;;;;;;5018186;28;20445;-85
2023/05/11 09:28:15;;;;;;;16.93;16.43;;;14.60;1.00;;;;;;5021361;28;20445;-84
2023/05/11 09:30:52;;;;;;;16.30;15.80;;;14.60;4.90;;;;;;5021710;28;20436;-83
2023/05/11 09:33:25;;;;;;;16.80;16.30;;;14.60;1.00;;;;;;5016132;28;20517;-85
2023/05/11 09:35:54;;;;;;;16.80;16.30;;;14.60;1.00;;;;;;5021792;28;20463;-84
2023/05/11 09:38:26;;;;;;;16.00;15.50;;;14.60;1.00;;;;;;5022825;28;20437;-83
2023/05/11 09:40:56;;;;;;;16.40;15.90;;;14.60;99.90;;;;;;5021868;28;21019;-83
2023/05/11 09:43:26;;;;;;;16.00;15.50;;;14.60;1.00;;;;;;5019485;28;20572;-84
2023/05/11 09:45:56;;;;;;;16.30;15.90;;;14.60;1.00;;;;;;5025873;28;20449;-85
2023/05/11 09:48:27;;;;;;;16.13;15.73;;;14.70;1.00;;;;;;5023558;28;20556;-86
2023/05/11 09:51:03;;;;;;;16.23;15.63;;;14.70;99.90;;;;;;5022977;28;20954;-84
2023/05/11 09:53:41;;;;;;;16.03;15.53;;;14.70;99.90;;;;;;5020274;28;20457;-84
2023/05/11 09:56:12;;;;;;;16.37;15.90;;;14.70;99.90;;;;;;5024701;28;20465;-84
2023/05/11 09:58:49;;;;;;;16.00;15.60;;;14.70;99.90;;;;;;5020449;28;20485;-84
2023/05/11 10:01:19;;;;;;;15.70;15.30;;;14.70;99.90;;;;;;5007216;28;20460;-84
2023/05/11 10:03:48;;;;;;;16.20;15.80;;;14.80;99.90;;;;;;5022981;28;20878;-84
2023/05/11 10:06:17;;;;;;;17.73;16.93;;;14.80;99.90;;;;;;5021344;28;20496;-83
2023/05/11 10:08:48;;;;;;;16.50;16.00;;;14.80;99.90;;;;;;5003282;28;20978;-84
2023/05/11 10:11:22;;;;;;;17.03;16.07;;;14.90;99.90;;;;;;5020409;28;20450;-83
2023/05/11 10:13:53;;;;;;;16.20;15.80;;;14.90;99.90;;;;;;5021298;28;21048;-84
2023/05/11 10:16:22;;;;;;;16.90;16.40;;;15.00;99.90;;;;;;5020962;28;20458;-85
2023/05/11 10:18:51;;;;;;;16.63;16.23;;;14.90;99.90;;;;;;5022008;28;20458;-84
2023/05/11 10:21:20;;;;;;;17.10;16.60;;;15.00;99.90;;;;;;5020524;28;20565;-84
2023/05/11 10:23:49;;;;;;;16.63;16.23;;;15.00;99.90;;;;;;5021070;28;20476;-84
2023/05/11 10:26:19;;;;;;;16.20;15.80;;;14.90;99.90;;;;;;5018923;28;21185;-85
2023/05/11 10:28:47;;;;;;;15.73;15.40;;;15.00;99.90;;;;;;5022320;28;20565;-82
2023/05/11 10:31:22;;;;;;;17.13;16.43;;;15.00;99.90;;;;;;5017731;28;20462;-86
2023/05/11 10:33:51;;;;;;;16.20;15.70;;;15.00;99.90;;;;;;5016752;28;21096;-84
2023/05/11 10:36:22;;;;;;;16.30;15.90;;;15.10;99.90;;;;;;5014309;28;20465;-83
2023/05/11 10:38:50;;;;;;;16.23;15.83;;;15.10;99.90;;;;;;5019272;28;20533;-84
2023/05/11 10:41:45;;;;;;;16.80;16.30;;;15.10;1.00;;;;;;5020722;28;20475;-85
2023/05/11 10:44:32;;;;;;;17.00;16.20;;;15.30;99.90;;;;;;5021353;28;20551;-84
2023/05/11 10:47:18;;;;;;;17.80;17.27;;;15.20;99.90;;;;;;5020825;28;20994;-83
2023/05/11 10:50:07;;;;;;;17.10;16.60;;;15.20;99.90;;;;;;5020708;28;20465;-84
2023/05/11 10:52:52;;;;;;;16.87;16.37;;;15.20;99.90;;;;;;5017214;28;20463;-85
2023/05/11 10:55:31;;;;;;;17.40;16.90;;;15.20;99.90;;;;;;5020371;28;20449;-84
2023/05/11 10:58:09;;;;;;;16.63;16.20;;;15.30;99.90;;;;;;5016658;28;20473;-85
2023/05/11 11:01:16;;;;;;;16.80;16.30;;;15.30;99.90;;;;;;5017982;28;20485;-84
2023/05/11 11:04:01;;;;;;;16.47;16.07;;;15.30;1.50;;;;;;5018101;28;20510;-83
2023/05/11 11:06:30;;;;;;;16.00;15.60;;;15.30;35.80;;;;;;5015467;28;20466;-85
2023/05/11 11:09:00;;;;;;;16.40;15.90;;;15.40;1.00;;;;;;5009999;28;20473;-84
2023/05/11 11:11:30;;;;;;;16.60;16.20;;;15.40;1.00;;;;;;5020122;28;20460;-84
2023/05/11 11:14:02;;;;;;;16.30;15.90;;;15.50;18.30;;;;;;5018115;28;20871;-85
2023/05/11 11:16:31;;;;;;;16.70;16.30;;;15.50;1.00;;;;;;5020441;28;20440;-86
2023/05/11 11:19:37;;;;;;;16.47;15.87;;;15.50;1.00;;;;;;5001106;28;20844;-84
2023/05/11 11:22:06;;;;;;;16.40;16.00;;;15.50;1.00;;;;;;5022212;28;20517;-84
2023/05/11 11:24:45;;;;;;;16.90;16.40;;;15.50;1.00;;;;;;5020971;28;20469;-85
2023/05/11 11:27:16;;;;;;;16.40;16.00;;;15.50;1.00;;;;;;5016640;28;20453;-86
2023/05/11 11:30:18;;;;;;;16.40;15.90;;;15.50;1.00;;;;;;5019238;28;20473;-85
2023/05/11 11:32:47;;;;;;;16.30;15.80;;;15.60;1.00;;;;;;5015344;28;20457;-84
2023/05/11 11:35:47;;;;;;;16.80;16.30;;;15.50;1.00;;;;;;5021252;28;20491;-84
2023/05/11 11:38:18;;;;;;;16.77;16.27;;;15.60;1.00;;;;;;5016022;28;20445;-85
2023/05/11 11:40:48;;;;;;;16.33;15.87;;;15.60;1.00;;;;;;5017173;28;20475;-85
2023/05/11 11:43:21;;;;;;;16.03;15.60;;;15.60;1.00;;;;;;5021207;28;20497;-83
2023/05/11 11:45:55;;;;;;;16.53;16.03;;;15.60;1.00;;;;;;5020719;28;20454;-84
2023/05/11 11:48:29;;;;;;;16.47;16.07;;;15.50;1.00;;;;;;5018459;28;20462;-83
2023/05/11 11:51:03;;;;;;;15.80;15.30;;;15.60;1.00;;;;;;5023147;28;20443;-83
2023/05/11 11:53:59;;;;;;;16.00;15.50;;;15.60;1.00;;;;;;5019744;28;20466;-84
2023/05/11 11:56:42;;;;;;;15.90;15.50;;;15.70;1.00;;;;;;5005108;28;20883;-84
2023/05/11 11:59:14;;;;;;;16.10;15.60;;;15.70;1.00;;;;;;5018895;28;20469;-84
2023/05/11 12:01:45;;;;;;;16.43;16.00;;;15.70;1.00;;;;;;5016025;28;20490;-85
2023/05/11 12:04:54;;;;;;;16.40;15.97;;;15.80;1.00;;;;;;4997886;28;20486;-85
2023/05/11 12:07:25;;;;;;;16.30;15.90;;;15.80;1.00;;;;;;5002519;28;20472;-84
2023/05/11 12:09:53;;;;;;;15.83;15.40;;;15.80;1.00;;;;;;5023609;28;20442;-85
2023/05/11 12:12:21;;;;;;;16.07;15.67;;;15.80;1.00;;;;;;5022221;28;20961;-83
2023/05/11 12:14:50;;;;;;;15.83;15.43;;;15.80;1.00;;;;;;5020762;28;20478;-85
2023/05/11 12:17:28;;;;;;;16.17;15.50;;;15.90;1.00;;;;;;5019090;28;20467;-83
2023/05/11 12:20:12;;;;;;;14.73;14.43;;;15.80;99.90;;;;;;5021375;28;20549;-86
2023/05/11 12:22:41;;;;;;;15.10;14.70;;;15.80;99.90;;;;;;5017998;28;20501;-85
2023/05/11 12:25:11;;;;;;;14.90;14.60;;;15.70;99.90;;;;;;5020606;28;20441;-84
2023/05/11 12:27:48;;;;;;;15.10;14.70;;;15.70;99.90;;;;;;5003224;28;20463;-84
2023/05/11 12:30:21;;;;;;;14.93;14.53;;;15.80;99.90;;;;;;5017591;28;20837;-85
2023/05/11 12:32:52;;;;;;;15.10;14.70;;;15.80;99.90;;;;;;5006167;28;20516;-84
2023/05/11 12:35:26;;;;;;;15.97;15.37;;;16.00;99.90;;;;;;5018276;28;20459;-83
2023/05/11 12:37:55;;;;;;;15.60;15.20;;;16.10;99.90;;;;;;5000511;28;20466;-84
2023/05/11 12:40:24;;;;;;;15.53;15.13;;;16.00;99.90;;;;;;5020117;28;21561;-84
2023/05/11 12:42:53;;;;;;;15.13;14.83;;;16.10;99.90;;;;;;5020972;28;20569;-85
2023/05/11 12:45:23;;;;;;;15.10;14.60;;;16.10;99.90;;;;;;5020308;28;20974;-83
2023/05/11 12:47:54;;;;;;;15.30;14.77;;;16.10;99.90;;;;;;5018081;28;20451;-84
2023/05/11 12:50:23;;;;;;;15.23;14.90;;;16.10;99.90;;;;;;5019967;28;20450;-85
2023/05/11 12:52:52;;;;;;;15.43;15.03;;;16.10;99.90;;;;;;5019652;28;20611;-84
2023/05/11 12:55:29;;;;;;;15.80;15.40;;;16.20;99.90;;;;;;5021407;28;20462;-84
2023/05/11 12:58:08;;;;;;;15.60;15.20;;;16.20;99.90;;;;;;5021375;28;20457;-85